Time;durP1;ratioP1;P1;durP2;ratioP2;P2;SDS_P1;SDS_P2;PMS_P1;PMS_P2;Temp;Humidity;BMP_temperature;BMP_pressure;BME280_temperature;BME280_humidity;BME280_pressure;Samples;Min_cycle;Max_cycle;Signal;HPM_P1;HPM_P2
2022/04/01 00:02:20;;;;;;;25.02;12.18;;;7.20;99.90;;;;;;5076306;28;20031;-78
2022/04/01 00:04:46;;;;;;;24.00;12.38;;;7.20;99.90;;;;;;5057827;28;20031;-78
2022/04/01 00:07:12;;;;;;;24.50;11.87;;;7.10;99.90;;;;;;5055943;28;20020;-78
2022/04/01 00:09:38;;;;;;;22.38;12.07;;;7.20;99.90;;;;;;5078758;28;20043;-78
2022/04/01 00:12:06;;;;;;;22.88;11.93;;;7.10;99.90;;;;;;5058668;28;20021;-78
2022/04/01 00:14:31;;;;;;;24.13;11.65;;;7.10;99.90;;;;;;5058288;28;20023;-78
2022/04/01 00:16:57;;;;;;;25.52;12.13;;;7.20;99.90;;;;;;5075499;28;20025;-78
2022/04/01 00:19:23;;;;;;;22.90;11.40;;;7.10;99.90;;;;;;5058279;28;20477;-78
2022/04/01 00:21:49;;;;;;;20.52;11.40;;;7.10;99.90;;;;;;5056798;28;20440;-77
2022/04/01 00:24:15;;;;;;;23.40;12.10;;;7.20;99.90;;;;;;5058448;28;20020;-78
2022/04/01 00:26:40;;;;;;;23.97;12.63;;;7.20;99.90;;;;;;5075562;28;20461;-78
2022/04/01 00:29:15;;;;;;;24.30;12.18;;;7.10;99.90;;;;;;5075956;28;20021;-78
2022/04/01 00:32:01;;;;;;;24.30;13.00;;;7.10;99.90;;;;;;5057661;28;20066;-78
2022/04/01 00:34:31;;;;;;;23.65;12.38;;;7.10;99.90;;;;;;5075995;28;20092;-78
2022/04/01 00:36:59;;;;;;;25.33;12.63;;;7.10;99.90;;;;;;5057713;28;20106;-78
2022/04/01 00:39:29;;;;;;;26.23;13.53;;;7.10;99.90;;;;;;5057899;28;20054;-78
2022/04/01 00:41:55;;;;;;;27.55;13.48;;;7.00;99.90;;;;;;5057740;28;20513;-78
2022/04/01 00:44:27;;;;;;;22.33;12.32;;;7.00;99.90;;;;;;5057827;28;20024;-78
2022/04/01 00:46:57;;;;;;;26.55;13.30;;;7.00;99.90;;;;;;5057147;28;20050;-78
2022/04/01 00:49:26;;;;;;;25.73;14.23;;;7.00;99.90;;;;;;5075592;28;20032;-77
2022/04/01 00:51:54;;;;;;;26.75;12.90;;;6.90;99.90;;;;;;5057151;28;20073;-78
2022/04/01 00:54:20;;;;;;;29.20;13.10;;;6.90;99.90;;;;;;5075330;28;20017;-78
2022/04/01 00:56:46;;;;;;;27.23;13.35;;;6.90;99.90;;;;;;5074759;28;20070;-78
2022/04/01 00:59:12;;;;;;;27.70;13.27;;;6.80;99.90;;;;;;5056806;28;20115;-78
2022/04/01 01:01:40;;;;;;;28.40;13.47;;;6.80;99.90;;;;;;5056071;28;20377;-78
2022/04/01 01:04:07;;;;;;;25.23;12.30;;;6.70;99.90;;;;;;5057093;28;20150;-77
2022/04/01 01:06:38;;;;;;;24.20;12.07;;;6.80;99.90;;;;;;5057355;28;20445;-77
2022/04/01 01:09:04;;;;;;;23.42;11.70;;;6.70;99.90;;;;;;5056882;28;20477;-77
2022/04/01 01:11:31;;;;;;;25.42;12.23;;;6.70;99.90;;;;;;5057087;28;20081;-77
2022/04/01 01:13:57;;;;;;;24.63;12.17;;;6.70;99.90;;;;;;5056614;28;20060;-77
2022/04/01 01:16:23;;;;;;;24.83;12.37;;;6.70;99.90;;;;;;5056594;28;20056;-78
2022/04/01 01:19:03;;;;;;;23.57;12.00;;;6.70;99.90;;;;;;5074446;28;20074;-78
2022/04/01 01:21:30;;;;;;;23.23;11.87;;;6.70;99.90;;;;;;5056593;28;20474;-78
2022/04/01 01:24:01;;;;;;;22.20;11.13;;;6.70;99.90;;;;;;5056659;28;20021;-78
2022/04/01 01:26:27;;;;;;;23.70;12.47;;;6.70;99.90;;;;;;5074711;28;20056;-78
2022/04/01 01:28:57;;;;;;;25.40;12.43;;;6.70;99.90;;;;;;5074237;28;20412;-78
2022/04/01 01:31:23;;;;;;;23.03;12.23;;;6.70;99.90;;;;;;5057441;28;20043;-78
2022/04/01 01:33:50;;;;;;;24.90;12.90;;;6.70;99.90;;;;;;5055717;28;20021;-78
2022/04/01 01:36:16;;;;;;;24.40;12.50;;;6.70;99.90;;;;;;5057430;28;20020;-78
2022/04/01 01:38:41;;;;;;;20.53;11.17;;;6.70;99.90;;;;;;5056651;28;20082;-79
2022/04/01 01:41:07;;;;;;;24.83;11.53;;;6.70;99.90;;;;;;5074648;28;20064;-78
2022/04/01 01:43:33;;;;;;;24.93;12.27;;;6.70;99.90;;;;;;5056374;28;20457;-78
2022/04/01 01:45:58;;;;;;;23.43;12.10;;;6.70;99.90;;;;;;5073826;28;20035;-78
2022/04/01 01:48:24;;;;;;;20.67;11.60;;;6.70;99.90;;;;;;5056741;28;20428;-78
2022/04/01 01:56:18;;;;;;;21.83;11.73;;;6.60;99.90;;;;;;5074477;28;20074;-78
2022/04/01 01:58:44;;;;;;;22.13;11.70;;;6.70;99.90;;;;;;5056006;28;20028;-79
2022/04/01 02:01:11;;;;;;;21.10;10.87;;;6.70;99.90;;;;;;5056607;28;20025;-78
2022/04/01 02:03:36;;;;;;;22.60;11.47;;;6.70;99.90;;;;;;5056436;28;20032;-78
2022/04/01 02:06:05;;;;;;;22.00;11.57;;;6.70;99.90;;;;;;5055753;28;20016;-78
2022/04/01 02:08:31;;;;;;;22.07;11.17;;;6.60;99.90;;;;;;5056308;28;20109;-78
2022/04/01 02:10:57;;;;;;;25.93;12.03;;;6.60;99.90;;;;;;5055653;28;20036;-77
2022/04/01 02:13:23;;;;;;;20.43;10.87;;;6.60;99.90;;;;;;5055809;28;20016;-78
2022/04/01 02:15:50;;;;;;;21.67;11.37;;;6.60;99.90;;;;;;5055542;28;20029;-78
2022/04/01 02:18:16;;;;;;;23.53;11.20;;;6.50;99.90;;;;;;5056006;28;20111;-78
2022/04/01 02:20:42;;;;;;;20.80;10.83;;;6.60;99.90;;;;;;5073179;28;20074;-79
2022/04/01 02:23:09;;;;;;;22.40;11.17;;;6.60;99.90;;;;;;5073582;28;20103;-78
2022/04/01 02:25:35;;;;;;;22.30;10.67;;;6.60;99.90;;;;;;5055969;28;20023;-78
2022/04/01 02:28:01;;;;;;;24.40;12.10;;;6.60;99.90;;;;;;5073304;28;20166;-78
2022/04/01 02:30:27;;;;;;;22.20;11.33;;;6.60;99.90;;;;;;5055740;28;20032;-78
2022/04/01 02:32:53;;;;;;;20.40;11.30;;;6.60;99.90;;;;;;5055222;28;20433;-78
2022/04/01 02:35:18;;;;;;;24.77;11.17;;;6.50;99.90;;;;;;5055733;28;20030;-77
2022/04/01 02:37:44;;;;;;;23.27;11.50;;;6.50;99.90;;;;;;5055080;28;20090;-78
2022/04/01 02:40:11;;;;;;;22.10;11.53;;;6.50;99.90;;;;;;5073279;28;20358;-77
2022/04/01 02:42:37;;;;;;;22.40;10.90;;;6.50;99.90;;;;;;5055633;28;20111;-77
2022/04/01 02:45:03;;;;;;;20.73;11.13;;;6.50;99.90;;;;;;5072685;28;20521;-78
2022/04/01 02:47:29;;;;;;;21.37;11.53;;;6.50;99.90;;;;;;5055457;28;20107;-77
2022/04/01 02:49:55;;;;;;;20.30;10.50;;;6.40;99.90;;;;;;5054822;28;20124;-77
2022/04/01 02:52:21;;;;;;;21.00;10.47;;;6.50;99.90;;;;;;5055417;28;20069;-77
2022/04/01 02:54:46;;;;;;;20.37;10.40;;;6.50;99.90;;;;;;5054863;28;20468;-78
2022/04/01 02:57:13;;;;;;;21.43;11.20;;;6.50;99.90;;;;;;5073209;28;20361;-78
2022/04/01 02:59:38;;;;;;;20.67;11.10;;;6.50;99.90;;;;;;5055393;28;20063;-77
2022/04/01 03:02:04;;;;;;;22.97;12.30;;;6.40;99.90;;;;;;5054736;28;20063;-77
2022/04/01 03:04:30;;;;;;;20.17;10.93;;;6.40;99.90;;;;;;5073550;28;20050;-79
2022/04/01 03:06:55;;;;;;;20.67;10.97;;;6.40;99.90;;;;;;5055216;28;20024;-78
2022/04/01 03:09:21;;;;;;;21.27;11.17;;;6.40;99.90;;;;;;5055440;28;20025;-78
2022/04/01 03:11:46;;;;;;;20.80;10.90;;;6.40;99.90;;;;;;5055357;28;20064;-79
2022/04/01 03:14:12;;;;;;;20.90;11.03;;;6.40;99.90;;;;;;5073619;28;20441;-78
2022/04/01 03:16:39;;;;;;;20.37;10.80;;;6.40;99.90;;;;;;5055639;28;20029;-78
2022/04/01 03:19:08;;;;;;;22.73;11.50;;;6.40;99.90;;;;;;5055287;28;20025;-78
2022/04/01 03:21:35;;;;;;;19.90;10.70;;;6.30;99.90;;;;;;5072740;28;20481;-78
2022/04/01 03:24:02;;;;;;;21.10;11.10;;;6.30;99.90;;;;;;5072915;28;20059;-78
2022/04/01 03:26:28;;;;;;;22.40;11.27;;;6.30;99.90;;;;;;5073142;28;20021;-78
2022/04/01 03:28:55;;;;;;;18.50;10.23;;;6.30;99.90;;;;;;5054686;28;20017;-76
2022/04/01 03:31:21;;;;;;;22.13;10.83;;;6.30;99.90;;;;;;5055073;28;20028;-77
2022/04/01 03:33:47;;;;;;;23.70;11.17;;;6.20;99.90;;;;;;5054417;28;20017;-77
2022/04/01 03:36:13;;;;;;;21.83;12.10;;;6.20;99.90;;;;;;5073008;28;20104;-76
2022/04/01 03:38:40;;;;;;;21.60;11.80;;;6.20;99.90;;;;;;5073025;28;20100;-76
2022/04/01 03:41:06;;;;;;;22.23;12.00;;;6.30;99.90;;;;;;5072500;28;20046;-77
2022/04/01 03:43:36;;;;;;;22.07;11.00;;;6.20;99.90;;;;;;5072996;28;20055;-76
2022/04/01 03:46:08;;;;;;;23.20;11.60;;;6.20;99.90;;;;;;5054513;28;20056;-78
2022/04/01 03:48:45;;;;;;;23.07;12.13;;;6.20;99.90;;;;;;5073049;28;20029;-79
2022/04/01 03:51:24;;;;;;;22.73;11.63;;;6.20;99.90;;;;;;5073249;28;20024;-79
2022/04/01 03:54:10;;;;;;;21.43;12.20;;;6.20;99.90;;;;;;5054948;28;20086;-79
2022/04/01 03:56:37;;;;;;;23.73;12.40;;;6.20;99.90;;;;;;5057134;28;20024;-77
2022/04/01 03:59:08;;;;;;;22.47;11.53;;;6.20;99.90;;;;;;5076290;28;20017;-77
2022/04/01 04:01:37;;;;;;;23.77;12.95;;;6.10;99.90;;;;;;5058787;28;20032;-77
2022/04/01 04:04:04;;;;;;;23.30;12.37;;;6.10;99.90;;;;;;5058232;28;20033;-77
2022/04/01 04:06:32;;;;;;;21.80;12.83;;;6.10;99.90;;;;;;5058812;28;20159;-77
2022/04/01 04:08:58;;;;;;;22.17;12.17;;;6.10;99.90;;;;;;5075562;28;20449;-78
2022/04/01 04:11:26;;;;;;;21.63;11.70;;;6.10;99.90;;;;;;5058281;28;20369;-77
2022/04/01 04:13:53;;;;;;;22.00;12.40;;;6.10;99.90;;;;;;5057876;28;20021;-77
2022/04/01 04:16:29;;;;;;;20.63;11.60;;;6.00;99.90;;;;;;5058055;28;20027;-77
2022/04/01 04:19:08;;;;;;;23.53;12.50;;;6.10;99.90;;;;;;5075788;28;20027;-77
2022/04/01 04:22:07;;;;;;;20.63;11.70;;;6.10;99.90;;;;;;5058035;28;20048;-77
2022/04/01 04:24:45;;;;;;;19.83;11.50;;;6.10;99.90;;;;;;5046412;28;20029;-78
2022/04/01 04:27:13;;;;;;;17.83;10.33;;;6.10;99.90;;;;;;5057779;28;20453;-78
2022/04/01 04:30:08;;;;;;;21.53;11.93;;;6.10;99.90;;;;;;5058091;28;20047;-77
2022/04/01 04:32:50;;;;;;;19.37;11.20;;;6.00;99.90;;;;;;5070639;28;20059;-78
2022/04/01 04:35:20;;;;;;;22.10;12.18;;;6.00;99.90;;;;;;5057737;28;20054;-78
2022/04/01 04:37:46;;;;;;;17.87;10.63;;;6.00;99.90;;;;;;5057580;28;20066;-78
2022/04/01 04:40:17;;;;;;;21.27;11.67;;;6.00;99.90;;;;;;5057008;28;20032;-78
2022/04/01 04:42:50;;;;;;;18.67;10.97;;;5.90;99.90;;;;;;5057573;28;20567;-78
2022/04/01 04:45:21;;;;;;;18.13;11.70;;;6.00;99.90;;;;;;5075479;28;20113;-77
2022/04/01 04:47:48;;;;;;;19.37;10.57;;;5.90;99.90;;;;;;5057383;28;20024;-78
2022/04/01 04:50:16;;;;;;;19.87;11.30;;;5.90;99.90;;;;;;5074822;28;20028;-78
2022/04/01 04:52:44;;;;;;;20.20;11.43;;;6.00;99.90;;;;;;5057127;28;20377;-77
2022/04/01 04:55:17;;;;;;;18.20;11.20;;;6.00;99.90;;;;;;5056706;28;20185;-78
2022/04/01 04:57:44;;;;;;;19.50;11.07;;;6.00;99.90;;;;;;5057539;28;20101;-78
2022/04/01 05:00:11;;;;;;;19.60;11.23;;;5.90;99.90;;;;;;5056633;28;20028;-78
2022/04/01 05:02:55;;;;;;;18.80;10.77;;;5.90;99.90;;;;;;5057394;28;20367;-79
2022/04/01 05:05:31;;;;;;;19.57;11.47;;;5.90;99.90;;;;;;5057358;28;20519;-78
2022/04/01 05:08:15;;;;;;;18.73;10.73;;;5.90;99.90;;;;;;5056510;28;20115;-77
2022/04/01 05:11:16;;;;;;;21.00;11.70;;;5.90;99.90;;;;;;5075158;28;20033;-77
2022/04/01 05:14:05;;;;;;;18.40;10.90;;;5.90;99.90;;;;;;4990528;28;20499;-78
2022/04/01 05:16:57;;;;;;;18.37;10.83;;;5.90;99.90;;;;;;5056983;28;20030;-77
2022/04/01 05:19:28;;;;;;;17.90;10.47;;;5.90;99.90;;;;;;5057006;28;20020;-77
2022/04/01 05:22:15;;;;;;;18.40;11.03;;;5.90;99.90;;;;;;5052794;28;20123;-78
2022/04/01 05:24:50;;;;;;;17.77;10.50;;;5.90;99.90;;;;;;5053899;28;20082;-77
2022/04/01 05:27:26;;;;;;;19.17;11.07;;;5.80;99.90;;;;;;5054185;28;20389;-77
2022/04/01 05:30:13;;;;;;;18.00;11.50;;;5.90;99.90;;;;;;5053070;28;20193;-83
2022/04/01 05:32:41;;;;;;;21.83;11.07;;;5.80;99.90;;;;;;5054059;28;20185;-80
2022/04/01 05:35:08;;;;;;;21.37;12.10;;;5.80;99.90;;;;;;5053227;28;20020;-80
2022/04/01 05:37:35;;;;;;;19.13;11.33;;;5.80;99.90;;;;;;5053801;28;20086;-79
2022/04/01 05:40:05;;;;;;;20.70;11.50;;;5.90;99.90;;;;;;5054422;28;20121;-80
2022/04/01 05:42:32;;;;;;;17.90;10.73;;;5.90;99.90;;;;;;5053773;28;20454;-79
2022/04/01 05:44:59;;;;;;;19.33;10.67;;;5.80;99.90;;;;;;5054211;28;20051;-80
2022/04/01 05:47:29;;;;;;;18.70;10.87;;;5.70;99.90;;;;;;5053322;28;20036;-80
2022/04/01 05:49:57;;;;;;;19.00;11.17;;;5.70;99.90;;;;;;5052929;28;20036;-80
2022/04/01 05:52:24;;;;;;;19.97;11.23;;;5.70;99.90;;;;;;5053507;28;20545;-80
2022/04/01 05:54:51;;;;;;;16.70;10.43;;;5.70;99.90;;;;;;5053407;28;20017;-80
2022/04/01 05:57:20;;;;;;;16.93;10.70;;;5.70;99.90;;;;;;5052983;28;20053;-80
2022/04/01 05:59:46;;;;;;;18.60;10.37;;;5.70;99.90;;;;;;5053289;28;20071;-77
2022/04/01 06:02:15;;;;;;;21.13;11.67;;;5.70;99.90;;;;;;5053569;28;20013;-78
2022/04/01 06:04:59;;;;;;;18.07;10.50;;;5.70;99.90;;;;;;5052663;28;20073;-77
2022/04/01 06:07:37;;;;;;;19.50;10.87;;;5.70;99.90;;;;;;5053861;28;20036;-78
2022/04/01 06:10:11;;;;;;;17.77;10.63;;;5.70;99.90;;;;;;5052338;28;20063;-78
2022/04/01 06:13:04;;;;;;;18.13;9.93;;;5.70;99.90;;;;;;5052870;28;20028;-79
2022/04/01 06:15:45;;;;;;;18.40;10.43;;;5.70;99.90;;;;;;5053138;28;20056;-79
2022/04/01 06:18:26;;;;;;;16.57;9.93;;;5.70;99.90;;;;;;5052102;28;20021;-79
2022/04/01 06:20:54;;;;;;;16.30;9.80;;;5.70;99.90;;;;;;5052264;28;20490;-77
2022/04/01 06:23:40;;;;;;;16.80;10.03;;;5.80;99.90;;;;;;5051807;28;20075;-77
2022/04/01 06:26:11;;;;;;;17.40;10.63;;;5.80;99.90;;;;;;5052317;28;20020;-78
2022/04/01 06:28:49;;;;;;;16.07;10.47;;;5.80;99.90;;;;;;5052861;28;20025;-76
2022/04/01 06:31:20;;;;;;;17.77;10.53;;;5.80;99.90;;;;;;5053192;28;20088;-77
2022/04/01 06:34:18;;;;;;;16.85;9.85;;;5.80;99.90;;;;;;5053547;28;20021;-77
2022/04/01 06:36:53;;;;;;;16.93;10.10;;;5.80;99.90;;;;;;5043659;28;20039;-77
2022/04/01 06:39:32;;;;;;;17.77;10.30;;;5.80;99.90;;;;;;5051932;28;20079;-79
2022/04/01 06:41:59;;;;;;;17.03;9.67;;;5.80;99.90;;;;;;5051743;28;20040;-79
2022/04/01 06:44:25;;;;;;;16.97;10.23;;;5.80;99.90;;;;;;5052442;28;20021;-78
2022/04/01 06:46:51;;;;;;;18.40;10.13;;;5.90;99.90;;;;;;5052190;28;20032;-79
2022/04/01 06:49:17;;;;;;;15.97;9.50;;;5.80;99.90;;;;;;5052034;28;20064;-79
2022/04/01 06:51:43;;;;;;;16.40;8.90;;;5.90;99.90;;;;;;5052399;28;20029;-79
2022/04/01 06:54:09;;;;;;;17.30;9.77;;;5.80;99.90;;;;;;5051836;28;20099;-79
2022/04/01 06:56:34;;;;;;;18.17;9.87;;;5.90;99.90;;;;;;5052224;28;20052;-79
2022/04/01 06:59:00;;;;;;;17.17;9.70;;;5.90;99.90;;;;;;5051835;28;20511;-79
2022/04/01 07:01:26;;;;;;;16.47;9.63;;;5.80;99.90;;;;;;5052160;28;20124;-79
2022/04/01 07:03:52;;;;;;;15.80;9.13;;;5.80;99.90;;;;;;5051869;28;20366;-79
2022/04/01 07:06:22;;;;;;;16.70;9.20;;;5.70;99.90;;;;;;5052683;28;20496;-79
2022/04/01 07:08:48;;;;;;;19.00;9.10;;;5.80;99.90;;;;;;5051835;28;20021;-79
2022/04/01 07:11:14;;;;;;;19.17;9.63;;;5.80;99.90;;;;;;5051485;28;20095;-79
2022/04/01 07:13:40;;;;;;;16.53;9.83;;;5.80;99.90;;;;;;5051577;28;20027;-79
2022/04/01 07:16:06;;;;;;;16.00;9.43;;;5.80;99.90;;;;;;5051372;28;20021;-80
2022/04/01 07:18:33;;;;;;;17.77;9.70;;;5.70;99.90;;;;;;5052060;28;20025;-79
2022/04/01 07:20:59;;;;;;;16.17;9.60;;;5.80;99.90;;;;;;5051209;28;20041;-86
2022/04/01 07:23:24;;;;;;;15.67;9.03;;;5.80;99.90;;;;;;5052048;28;20025;-79
2022/04/01 07:25:50;;;;;;;17.37;9.57;;;5.70;99.90;;;;;;5052053;28;20489;-79
2022/04/01 07:28:16;;;;;;;17.50;9.13;;;5.70;99.90;;;;;;5051430;28;20473;-79
2022/04/01 07:30:41;;;;;;;14.87;8.83;;;5.70;99.90;;;;;;5052459;28;20469;-78
2022/04/01 07:33:09;;;;;;;17.23;9.70;;;5.70;99.90;;;;;;5055266;28;20025;-78
2022/04/01 07:35:36;;;;;;;17.83;10.23;;;5.80;99.90;;;;;;5055571;28;20017;-78
2022/04/01 07:38:03;;;;;;;16.77;9.80;;;5.80;99.90;;;;;;5054931;28;20111;-78
2022/04/01 07:40:30;;;;;;;17.23;9.53;;;5.80;99.90;;;;;;5056618;28;20029;-79
2022/04/01 07:42:56;;;;;;;17.53;9.60;;;5.80;99.90;;;;;;5055919;28;20021;-78
2022/04/01 07:45:23;;;;;;;16.33;9.37;;;5.80;99.90;;;;;;5056129;28;20035;-80
2022/04/01 07:47:50;;;;;;;18.10;9.93;;;5.80;99.90;;;;;;5054784;28;20148;-78
2022/04/01 07:50:17;;;;;;;18.40;9.97;;;5.90;99.90;;;;;;5055112;28;20032;-79
2022/04/01 07:52:43;;;;;;;17.80;9.53;;;5.90;99.90;;;;;;5055353;28;20370;-79
2022/04/01 07:55:11;;;;;;;19.47;10.40;;;5.90;99.90;;;;;;5052046;28;20465;-84
2022/04/01 07:57:37;;;;;;;19.40;10.60;;;5.90;99.90;;;;;;5052130;28;20020;-80
2022/04/01 08:00:05;;;;;;;15.93;8.80;;;5.90;99.90;;;;;;5067784;28;20127;-80
2022/04/01 08:02:31;;;;;;;16.23;8.97;;;5.90;99.90;;;;;;5055706;28;20020;-79
2022/04/01 08:04:56;;;;;;;15.23;8.47;;;5.80;99.90;;;;;;5063862;28;20021;-78
2022/04/01 08:07:22;;;;;;;14.53;8.37;;;5.80;99.90;;;;;;5062840;28;20550;-79
2022/04/01 08:09:53;;;;;;;15.63;9.10;;;5.80;99.90;;;;;;5055897;28;20477;-79
2022/04/01 08:12:19;;;;;;;15.60;7.97;;;5.80;99.90;;;;;;5068996;28;20024;-80
2022/04/01 08:14:45;;;;;;;15.07;8.87;;;5.80;99.90;;;;;;5051989;28;20116;-80
2022/04/01 08:17:12;;;;;;;14.53;8.53;;;5.80;99.90;;;;;;5061117;28;20411;-80
2022/04/01 08:19:42;;;;;;;14.73;8.60;;;5.80;99.90;;;;;;5058063;28;20037;-80
2022/04/01 08:22:08;;;;;;;13.67;7.40;;;5.80;99.90;;;;;;5071340;28;20043;-78
2022/04/01 08:24:34;;;;;;;14.43;8.40;;;5.80;99.90;;;;;;5059813;28;20103;-79
2022/04/01 08:27:00;;;;;;;13.67;7.83;;;5.80;99.90;;;;;;5063748;28;20020;-79
2022/04/01 08:29:30;;;;;;;14.17;8.27;;;5.80;99.90;;;;;;5080490;28;20028;-79
2022/04/01 08:31:56;;;;;;;11.87;7.37;;;5.80;99.90;;;;;;5072089;28;20032;-79
2022/04/01 08:34:22;;;;;;;12.97;7.73;;;5.80;99.90;;;;;;5053068;28;20118;-80
2022/04/01 08:36:49;;;;;;;13.70;8.00;;;5.70;99.90;;;;;;5056190;28;20033;-79
2022/04/01 08:39:15;;;;;;;13.83;8.20;;;5.80;99.90;;;;;;5056112;28;20031;-81
2022/04/01 08:41:41;;;;;;;14.20;7.87;;;5.80;99.90;;;;;;5053721;28;20040;-79
2022/04/01 08:44:07;;;;;;;13.27;8.07;;;5.80;99.90;;;;;;5057356;28;20023;-80
2022/04/01 08:46:34;;;;;;;12.43;7.53;;;5.80;99.90;;;;;;5057142;28;20021;-80
2022/04/01 08:49:00;;;;;;;12.83;7.57;;;5.90;99.90;;;;;;5056689;28;20454;-80
2022/04/01 08:51:29;;;;;;;10.30;7.03;;;5.80;99.90;;;;;;5055887;28;20071;-79
2022/04/01 08:53:54;;;;;;;12.00;7.20;;;5.90;99.90;;;;;;5074729;28;20013;-79
2022/04/01 08:56:21;;;;;;;12.33;7.23;;;5.90;99.90;;;;;;5058367;28;20129;-79
2022/04/01 08:58:47;;;;;;;11.90;7.27;;;5.90;99.90;;;;;;5061699;28;20034;-78
2022/04/01 09:01:14;;;;;;;14.13;7.47;;;5.90;99.90;;;;;;5068890;28;20037;-80
2022/04/01 09:03:41;;;;;;;11.63;7.10;;;5.90;99.90;;;;;;5059571;28;20029;-80
2022/04/01 09:06:07;;;;;;;11.50;7.13;;;5.90;99.90;;;;;;5070333;28;20024;-81
2022/04/01 09:08:38;;;;;;;12.30;7.07;;;5.90;99.90;;;;;;5076836;28;20023;-81
2022/04/01 09:11:10;;;;;;;12.10;7.63;;;5.90;99.90;;;;;;5064681;28;20036;-80
2022/04/01 09:13:50;;;;;;;;;;;5.80;99.90;;;;;;5067816;28;20031;-79
2022/04/01 09:16:32;;;;;;;11.77;6.67;;;5.90;99.90;;;;;;5056856;28;19915;-80
2022/04/01 09:19:03;;;;;;;12.20;7.27;;;5.90;99.90;;;;;;5066492;28;20028;-80
2022/04/01 09:21:30;;;;;;;11.57;7.13;;;5.80;99.90;;;;;;5066368;28;20124;-79
2022/04/01 09:23:58;;;;;;;9.53;6.80;;;5.80;99.90;;;;;;5057191;28;20111;-83
2022/04/01 09:26:41;;;;;;;10.73;6.77;;;5.80;99.90;;;;;;5080429;28;20028;-80
2022/04/01 09:29:10;;;;;;;10.10;6.50;;;5.70;99.90;;;;;;5081423;28;20032;-80
2022/04/01 09:31:38;;;;;;;10.10;6.53;;;5.80;99.90;;;;;;5066695;28;20491;-79
2022/04/01 09:34:12;;;;;;;11.77;6.67;;;5.70;99.90;;;;;;5056413;28;20111;-79
2022/04/01 09:36:41;;;;;;;10.43;6.47;;;5.70;99.90;;;;;;5067830;28;20020;-80
2022/04/01 09:39:18;;;;;;;10.03;6.23;;;5.70;99.90;;;;;;5063118;28;20068;-81
2022/04/01 09:41:44;;;;;;;10.80;6.37;;;5.70;99.90;;;;;;5059140;28;20028;-80
2022/04/01 09:44:21;;;;;;;12.50;6.87;;;5.70;99.90;;;;;;5069929;28;20020;-81
2022/04/01 09:46:52;;;;;;;12.90;6.80;;;5.70;99.90;;;;;;5053321;28;20041;-80
2022/04/01 09:49:36;;;;;;;10.43;6.60;;;5.70;99.90;;;;;;5064760;28;20036;-80
2022/04/01 09:52:13;;;;;;;9.60;5.97;;;5.60;99.90;;;;;;5070797;28;20037;-82
2022/04/01 09:54:53;;;;;;;11.00;6.30;;;5.60;99.90;;;;;;5069698;28;20055;-80
2022/04/01 09:57:23;;;;;;;9.13;5.33;;;5.60;99.90;;;;;;5070306;28;20031;-80
2022/04/01 09:59:51;;;;;;;12.47;6.17;;;5.60;99.90;;;;;;5069003;28;20334;-81
2022/04/01 10:02:17;;;;;;;8.83;5.77;;;5.70;99.90;;;;;;5053355;28;20071;-82
2022/04/01 10:04:43;;;;;;;9.93;5.83;;;5.70;99.90;;;;;;5077331;28;20024;-81
2022/04/01 10:07:09;;;;;;;12.17;5.80;;;5.70;99.90;;;;;;5062716;28;20027;-81
2022/04/01 10:09:37;;;;;;;12.20;6.03;;;5.70;99.90;;;;;;5066879;28;20048;-80
2022/04/01 10:12:08;;;;;;;10.87;6.43;;;5.70;99.90;;;;;;5056493;28;20043;-81
2022/04/01 10:14:35;;;;;;;9.52;6.07;;;5.60;99.90;;;;;;5067910;28;20078;-80
2022/04/01 10:17:01;;;;;;;14.33;6.63;;;5.60;99.90;;;;;;5062165;28;20043;-80
2022/04/01 10:19:37;;;;;;;13.40;7.63;;;5.60;99.90;;;;;;5078138;28;20028;-80
2022/04/01 10:22:03;;;;;;;12.90;7.53;;;5.50;99.90;;;;;;5087515;28;20047;-80
2022/04/01 10:24:46;;;;;;;10.23;6.93;;;5.50;99.90;;;;;;5056942;28;20097;-79
2022/04/01 10:27:14;;;;;;;13.13;7.00;;;5.50;99.90;;;;;;5032444;28;20035;-79
2022/04/01 10:29:42;;;;;;;12.90;7.97;;;5.50;99.90;;;;;;5061375;28;20016;-80
2022/04/01 10:32:26;;;;;;;12.03;7.37;;;5.60;99.90;;;;;;5073427;28;20028;-80
2022/04/01 10:34:55;;;;;;;13.30;7.27;;;5.50;99.90;;;;;;5065233;28;20025;-79
2022/04/01 10:37:22;;;;;;;13.43;7.83;;;5.50;99.90;;;;;;5081682;28;20081;-79
2022/04/01 10:39:51;;;;;;;13.07;7.70;;;5.50;99.90;;;;;;5074882;28;20047;-80
2022/04/01 10:42:17;;;;;;;12.67;7.87;;;5.50;99.90;;;;;;5086691;28;20499;-80
2022/04/01 10:44:48;;;;;;;12.03;7.60;;;5.60;99.90;;;;;;5058452;28;20350;-80
2022/04/01 10:47:14;;;;;;;12.43;7.63;;;5.60;99.90;;;;;;5079168;28;20024;-80
2022/04/01 10:52:30;;;;;;;10.90;6.77;;;5.70;99.90;;;;;;5029854;28;20109;-79
2022/04/01 10:55:18;;;;;;;11.90;7.67;;;5.70;99.90;;;;;;5081953;28;20027;-79
2022/04/01 10:57:47;;;;;;;14.27;8.30;;;5.80;99.90;;;;;;5058577;28;20012;-79
2022/04/01 11:00:16;;;;;;;13.40;7.60;;;5.80;99.90;;;;;;5087171;28;20035;-80
2022/04/01 11:02:44;;;;;;;11.87;7.53;;;5.80;99.90;;;;;;5076200;28;20094;-79
2022/04/01 11:05:26;;;;;;;11.93;7.43;;;5.70;99.90;;;;;;5063030;28;20107;-81
2022/04/01 11:08:19;;;;;;;12.50;7.22;;;5.70;99.90;;;;;;5091290;28;20023;-79
2022/04/01 11:11:07;;;;;;;11.27;7.27;;;5.70;99.90;;;;;;5087648;28;20135;-79
2022/04/01 11:13:33;;;;;;;11.07;6.57;;;5.70;99.90;;;;;;5069447;28;20054;-79
2022/04/01 11:16:12;;;;;;;14.77;6.73;;;5.70;99.90;;;;;;5060132;28;20086;-80
2022/04/01 11:19:11;;;;;;;13.77;6.70;;;5.70;99.90;;;;;;5070525;28;20040;-79
2022/04/01 11:21:36;;;;;;;12.37;6.50;;;5.80;99.90;;;;;;5075026;28;20060;-79
2022/04/01 11:24:21;;;;;;;11.97;7.07;;;5.80;99.90;;;;;;5057248;28;20458;-80
2022/04/01 11:26:47;;;;;;;12.97;7.80;;;5.70;99.90;;;;;;5064768;28;20039;-80
2022/04/01 11:29:22;;;;;;;13.23;6.87;;;5.70;99.90;;;;;;5064721;28;20025;-79
2022/04/01 11:31:48;;;;;;;12.60;6.57;;;5.70;99.90;;;;;;5071292;28;20427;-79
2022/04/01 11:34:14;;;;;;;14.03;7.43;;;5.70;99.90;;;;;;5056059;28;20033;-79
2022/04/01 11:36:42;;;;;;;13.43;6.90;;;5.60;99.90;;;;;;5061875;28;20081;-80
2022/04/01 11:39:10;;;;;;;10.27;6.90;;;5.70;99.90;;;;;;5065885;28;20404;-80
2022/04/01 11:41:51;;;;;;;10.80;6.80;;;5.60;99.90;;;;;;5056039;28;20119;-80
2022/04/01 11:44:17;;;;;;;12.20;7.32;;;5.60;99.90;;;;;;5089836;28;20338;-79
2022/04/01 11:46:50;;;;;;;12.43;6.60;;;5.60;99.90;;;;;;5080332;28;20043;-79
2022/04/01 11:49:17;;;;;;;10.60;6.40;;;5.50;99.90;;;;;;5082295;28;20039;-79
2022/04/01 11:51:42;;;;;;;12.17;6.60;;;5.60;99.90;;;;;;5055059;28;20024;-79
2022/04/01 11:54:10;;;;;;;10.60;6.57;;;5.60;99.90;;;;;;5071390;28;20028;-79
2022/04/01 11:56:36;;;;;;;10.53;6.60;;;5.50;99.90;;;;;;5060845;28;20024;-80
2022/04/01 11:59:04;;;;;;;10.20;6.43;;;5.50;99.90;;;;;;5066461;28;20028;-80
2022/04/01 12:01:54;;;;;;;11.33;6.50;;;5.40;99.90;;;;;;5068144;28;20035;-81
2022/04/01 12:04:27;;;;;;;10.83;6.37;;;5.50;99.90;;;;;;5076560;28;20369;-81
2022/04/01 12:09:36;;;;;;;13.00;7.60;;;5.50;99.90;;;;;;5087459;28;20147;-79
2022/04/01 12:12:02;;;;;;;11.37;6.60;;;5.60;99.90;;;;;;5076775;28;20139;-79
2022/04/01 12:14:29;;;;;;;13.60;7.80;;;5.60;99.90;;;;;;5070609;28;20024;-79
2022/04/01 12:16:55;;;;;;;13.63;6.90;;;5.60;99.90;;;;;;5062285;28;20055;-82
2022/04/01 12:19:21;;;;;;;11.83;6.97;;;5.60;99.90;;;;;;5080864;28;20457;-80
2022/04/01 12:21:54;;;;;;;11.77;6.50;;;5.50;99.90;;;;;;5070515;28;20498;-79
2022/04/01 12:24:20;;;;;;;13.47;7.70;;;5.50;99.90;;;;;;5058132;28;20055;-81
2022/04/01 12:26:49;;;;;;;13.20;6.70;;;5.50;99.90;;;;;;5082058;28;20048;-82
2022/04/01 12:29:22;;;;;;;12.53;7.40;;;5.40;99.90;;;;;;5063886;28;20112;-80
2022/04/01 12:31:53;;;;;;;11.20;6.53;;;5.50;99.90;;;;;;5088400;28;20503;-80
2022/04/01 12:34:20;;;;;;;11.93;7.47;;;5.40;99.90;;;;;;5057791;28;20679;-79
2022/04/01 12:36:54;;;;;;;10.57;6.83;;;5.40;99.90;;;;;;5086112;28;20079;-81
2022/04/01 12:39:20;;;;;;;12.23;7.13;;;5.40;99.90;;;;;;5054963;28;20021;-81
2022/04/01 12:42:01;;;;;;;10.63;6.73;;;5.50;99.90;;;;;;5055097;28;20039;-79
2022/04/01 12:44:32;;;;;;;13.13;6.93;;;5.50;99.90;;;;;;5058241;28;20310;-78
2022/04/01 12:47:02;;;;;;;10.90;6.73;;;5.40;99.90;;;;;;5068139;28;20466;-78
2022/04/01 12:49:32;;;;;;;10.53;6.43;;;5.30;99.90;;;;;;5073540;28;20032;-78
2022/04/01 12:51:59;;;;;;;11.63;7.27;;;5.30;99.90;;;;;;5069174;28;20040;-79
2022/04/01 12:54:33;;;;;;;12.17;7.50;;;5.30;99.90;;;;;;5068899;28;20021;-80
2022/04/01 12:57:05;;;;;;;10.30;6.47;;;5.20;99.90;;;;;;5056960;28;20024;-78
2022/04/01 12:59:39;;;;;;;14.40;7.70;;;5.20;99.90;;;;;;5056939;28;20054;-77
2022/04/01 13:02:12;;;;;;;10.73;6.87;;;5.20;99.90;;;;;;5074936;28;20028;-79
2022/04/01 13:04:43;;;;;;;10.70;7.30;;;5.10;99.90;;;;;;5042753;28;20027;-82
2022/04/01 13:07:18;;;;;;;9.77;6.03;;;5.20;99.90;;;;;;5065920;28;20024;-80
2022/04/01 13:09:51;;;;;;;8.87;5.87;;;5.10;99.90;;;;;;5072738;28;20025;-81